^^
Saratoga-Weather Station Historical Data
Daily Summary for June 5, 2021 Units:  English    Metric   Both
Daily Weekly Monthly Yearly Custom
  High: Low: Average:
Temperature: 67.8 °F 59.9 °F 61.7 °F
Dew Point: 64.4 °F 57.7 °F 59.4 °F
Humidity: 95% 87% 92%
Wind Speed: 6.9mph 0mph 1.5mph
Wind Gust: 12mph - -
Wind- - SSE
Pressure: 29.8 in 29.8 in -
Precipitation: 0.03 in    
Historical Graphs
 
 
Tabular Data for June 5, 2021
Time Temperature Dew Point Pressure Wind Wind Speed Wind Gust Humidity Rainfall Rate (Hourly) solar
00:04 61.7 °F 59.4 °F 29.8 in Calm     92% 0 in 0 W/m2
00:09 61.3 °F 59.4 °F 29.8 in Calm   2 mph 93% 0 in 0 W/m2
00:14 61.2 °F 59.2 °F 29.8 in Calm   2 mph 93% 0 in 0 W/m2
00:19 61 °F 59 °F 29.8 in Calm     93% 0 in 0 W/m2
00:24 61 °F 59 °F 29.8 in Calm   1 mph 93% 0 in 0 W/m2
00:29 60.8 °F 59 °F 29.8 in Calm     94% 0 in 0 W/m2
00:34 60.6 °F 58.8 °F 29.8 in Calm   1 mph 94% 0 in 0 W/m2
00:39 60.6 °F 58.8 °F 29.8 in Calm     94% 0 in 0 W/m2
00:44 60.6 °F 58.8 °F 29.8 in Calm     94% 0 in 0 W/m2
00:49 60.6 °F 58.8 °F 29.8 in Calm     94% 0 in 0 W/m2
00:54 60.4 °F 58.6 °F 29.8 in Calm     94% 0 in 0 W/m2
00:59 60.3 °F 58.5 °F 29.8 in Calm     94% 0 in 0 W/m2
01:04 60.1 °F 58.3 °F 29.8 in Calm   2 mph 94% 0 in 0 W/m2
01:09 59.9 °F 58.1 °F 29.8 in SW 0.9 mph 1 mph 94% 0 in 0 W/m2
01:14 59.9 °F 58.1 °F 29.8 in Calm     94% 0 in 0 W/m2
01:19 59.9 °F 58.1 °F 29.8 in Calm   2 mph 94% 0 in 0 W/m2
01:24 59.9 °F 58.1 °F 29.8 in ENE 0.9 mph 3 mph 94% 0 in 0 W/m2
01:29 59.9 °F 58.1 °F 29.8 in ENE 0.9 mph 2 mph 94% 0 in 0 W/m2
01:34 59.9 °F 58.1 °F 29.8 in Calm   3 mph 94% 0 in 0 W/m2
01:39 60.1 °F 58.3 °F 29.8 in NE 0.9 mph 2 mph 94% 0 in 0 W/m2
01:44 60.1 °F 58.6 °F 29.8 in ENE 0.9 mph 2 mph 95% 0 in 0 W/m2
01:49 60.3 °F 58.5 °F 29.8 in Calm   1 mph 94% 0 in 0 W/m2
01:54 60.4 °F 58.6 °F 29.8 in NE 2 mph 3 mph 94% 0 in 0 W/m2
01:59 60.6 °F 58.8 °F 29.8 in ENE 2 mph 3 mph 94% 0 in 0 W/m2
02:04 61 °F 59.2 °F 29.8 in Calm   2 mph 94% 0 in 0 W/m2
02:09 61.2 °F 59.2 °F 29.8 in ENE 2.9 mph 3 mph 93% 0 in 0 W/m2
02:14 61.3 °F 59.4 °F 29.8 in Calm   5 mph 93% 0 in 0 W/m2
02:19 61.5 °F 59.5 °F 29.8 in NNE 0.9 mph 3 mph 93% 0 in 0 W/m2
02:24 61.9 °F 59.5 °F 29.8 in North 0.9 mph 5 mph 92% 0 in 0 W/m2
02:29 62.1 °F 59.7 °F 29.8 in North 2 mph 2 mph 92% 0 in 0 W/m2
02:34 62.1 °F 59.7 °F 29.8 in SSW 0.9 mph 3 mph 92% 0 in 0 W/m2
02:39 62.1 °F 59.7 °F 29.8 in North 2 mph 4 mph 92% 0 in 0 W/m2
02:44 62.1 °F 59.7 °F 29.8 in North 0.9 mph 3 mph 92% 0 in 0 W/m2
02:49 62.1 °F 59.4 °F 29.8 in Calm   4 mph 91% 0 in 0 W/m2
02:54 62.1 °F 59.4 °F 29.8 in SSE 0.9 mph 5 mph 91% 0 in 0 W/m2
02:59 62.1 °F 59.4 °F 29.8 in Calm   4 mph 91% 0 in 0 W/m2
03:04 62.1 °F 59.4 °F 29.8 in Calm   1 mph 91% 0 in 0 W/m2
03:09 62.1 °F 59.4 °F 29.8 in NNW 0.9 mph 3 mph 91% 0 in 0 W/m2
03:14 62.1 °F 59.4 °F 29.8 in Calm   2 mph 91% 0 in 0 W/m2
03:19 62.1 °F 59.4 °F 29.8 in Calm   3 mph 91% 0 in 0 W/m2
03:24 62.1 °F 59.4 °F 29.8 in Calm   2 mph 91% 0 in 0 W/m2
03:29 62.1 °F 59.4 °F 29.8 in NW 0.9 mph 2 mph 91% 0 in 0 W/m2
03:34 62.1 °F 59.4 °F 29.8 in NW 6 mph 6 mph 91% 0 in 0 W/m2
03:39 62.1 °F 59.4 °F 29.8 in ENE 0.9 mph 4 mph 91% 0 in 0 W/m2
03:44 62.1 °F 59.4 °F 29.8 in WNW 0.9 mph 5 mph 91% 0 in 0 W/m2
03:49 62.1 °F 59.4 °F 29.8 in Calm   3 mph 91% 0 in 0 W/m2
03:54 62.1 °F 59.4 °F 29.8 in West 2 mph 5 mph 91% 0 in 0 W/m2
03:59 62.1 °F 59.2 °F 29.8 in WNW 4.9 mph 9 mph 90% 0 in 0 W/m2
04:04 61.9 °F 59 °F 29.8 in SW 2 mph 3 mph 90% 0 in 0 W/m2
04:09 61.9 °F 59 °F 29.8 in WNW 2 mph 9 mph 90% 0 in 0 W/m2
04:14 61.7 °F 58.8 °F 29.8 in WNW 2.9 mph 3 mph 90% 0 in 0 W/m2
04:19 61.5 °F 58.6 °F 29.8 in WNW 2 mph 7 mph 90% 0 in 0 W/m2
04:24 61.3 °F 58.5 °F 29.8 in NW 4.9 mph 5 mph 90% 0 in 0 W/m2
04:29 61.3 °F 58.5 °F 29.8 in WNW 4 mph 7 mph 90% 0 in 0 W/m2
04:34 61.3 °F 58.5 °F 29.8 in WNW 6.9 mph 7 mph 90% 0 in 0 W/m2
04:39 61.2 °F 58.3 °F 29.8 in WNW 4.9 mph 7 mph 90% 0 in 0 W/m2
04:44 61.2 °F 58.3 °F 29.8 in WNW 4 mph 8 mph 90% 0 in 0 W/m2
04:49 61 °F 58.1 °F 29.8 in WNW 2.9 mph 7 mph 90% 0 in 0 W/m2
04:54 61 °F 58.1 °F 29.8 in NW 2.9 mph 8 mph 90% 0 in 0 W/m2
04:59 60.8 °F 57.9 °F 29.8 in West 4 mph 7 mph 90% 0 in 0 W/m2
05:05 60.6 °F 57.7 °F 29.8 in WNW 0.9 mph 6 mph 90% 0 in 0 W/m2
05:10 60.6 °F 57.9 °F 29.8 in West 4 mph 6 mph 91% 0 in 0 W/m2
05:15 60.6 °F 57.9 °F 29.8 in WNW 2.9 mph 3 mph 91% 0 in 0 W/m2
05:20 60.4 °F 57.7 °F 29.8 in West 6 mph 6 mph 91% 0 in 0 W/m2
05:25 60.4 °F 57.7 °F 29.8 in NNW 0.9 mph 4 mph 91% 0 in 0 W/m2
05:30 60.4 °F 57.7 °F 29.8 in West 2 mph 3 mph 91% 0 in 0 W/m2
05:35 60.4 °F 57.7 °F 29.8 in Calm   2 mph 91% 0 in 0 W/m2
05:40 60.4 °F 57.7 °F 29.8 in Calm   1 mph 91% 0 in 0 W/m2
05:45 60.4 °F 57.7 °F 29.8 in West 2 mph 2 mph 91% 0 in 0 W/m2
05:50 60.3 °F 57.9 °F 29.8 in Calm     92% 0 in 0 W/m2
05:55 60.3 °F 57.9 °F 29.8 in NE 0.9 mph 1 mph 92% 0 in 0 W/m2
06:00 60.3 °F 57.9 °F 29.8 in Calm     92% 0 in 0 W/m2
06:05 60.3 °F 57.9 °F 29.8 in Calm     92% 0 in 5 W/m2
06:10 60.1 °F 57.7 °F 29.8 in Calm   1 mph 92% 0 in 7 W/m2
06:15 60.1 °F 57.7 °F 29.8 in NE 0.9 mph 2 mph 92% 0 in 7 W/m2
06:20 60.1 °F 57.7 °F 29.8 in Calm     92% 0 in 7 W/m2
06:25 60.1 °F 57.7 °F 29.8 in Calm     92% 0 in 7 W/m2
06:30 60.1 °F 57.7 °F 29.8 in Calm     92% 0 in 11 W/m2
06:35 60.1 °F 58.1 °F 29.8 in Calm     93% 0 in 12 W/m2
06:40 59.9 °F 57.9 °F 29.8 in Calm     93% 0 in 18 W/m2
06:45 59.9 °F 57.9 °F 29.8 in Calm     93% 0 in 21 W/m2
06:50 59.9 °F 57.9 °F 29.8 in SE 2 mph 3 mph 93% 0 in 21 W/m2
06:55 60.1 °F 58.1 °F 29.8 in Calm     93% 0 in 26 W/m2
07:00 60.1 °F 58.1 °F 29.8 in ESE 0.9 mph 3 mph 93% 0 in 32 W/m2
07:05 60.1 °F 58.1 °F 29.8 in East 0.9 mph 1 mph 93% 0 in 33 W/m2
07:10 60.3 °F 58.3 °F 29.8 in ENE 0.9 mph 2 mph 93% 0 in 39 W/m2
07:15 60.3 °F 58.3 °F 29.8 in East 0.9 mph 3 mph 93% 0 in 42 W/m2
07:20 60.4 °F 58.5 °F 29.8 in Calm   2 mph 93% 0 in 42 W/m2
07:25 60.4 °F 58.5 °F 29.8 in Calm   2 mph 93% 0 in 46 W/m2
07:30 60.6 °F 58.6 °F 29.8 in Calm     93% 0 in 35 W/m2
07:35 60.6 °F 58.3 °F 29.8 in Calm     92% 0 in 30 W/m2
07:40 60.8 °F 58.5 °F 29.8 in Calm     92% 0 in 35 W/m2
07:45 61 °F 58.6 °F 29.8 in Calm     92% 0 in 37 W/m2
07:50 61 °F 58.6 °F 29.8 in Calm     92% 0 in 49 W/m2
07:55 61.2 °F 59.2 °F 29.8 in Calm     93% 0 in 65 W/m2
08:00 61.2 °F 59.2 °F 29.8 in ENE 2 mph 2 mph 93% 0 in 47 W/m2
08:05 61.3 °F 59 °F 29.8 in ENE 0.9 mph 2 mph 92% 0 in 58 W/m2
08:10 61.3 °F 59 °F 29.8 in ENE 2 mph 2 mph 92% 0 in 81 W/m2
08:15 61.5 °F 59.2 °F 29.8 in Calm   1 mph 92% 0 in 63 W/m2
08:20 61.5 °F 59.2 °F 29.8 in Calm   1 mph 92% 0 in 69 W/m2
08:25 61.7 °F 59.4 °F 29.8 in Calm     92% 0 in 76 W/m2
08:30 61.7 °F 59.4 °F 29.8 in Calm   1 mph 92% 0 in 86 W/m2
08:35 61.9 °F 59.5 °F 29.8 in Calm   1 mph 92% 0 in 109 W/m2
08:40 62.1 °F 59.7 °F 29.8 in Calm   1 mph 92% 0 in 105 W/m2
08:45 62.1 °F 59.4 °F 29.8 in ENE 0.9 mph 2 mph 91% 0.01 in 95 W/m2
08:50 62.1 °F 59.4 °F 29.8 in East 2 mph 2 mph 91% 0.01 in 86 W/m2
08:55 61.9 °F 59.2 °F 29.8 in East 0.9 mph 3 mph 91% 0.01 in 120 W/m2
09:01 61.9 °F 59.2 °F 29.8 in SE 2 mph 3 mph 91% 0.01 in 114 W/m2
09:06 62.1 °F 59.7 °F 29.8 in ENE 2 mph 4 mph 92% 0.02 in 116 W/m2
09:11 61.9 °F 59.5 °F 29.8 in ESE 0.9 mph 2 mph 92% 0.02 in 98 W/m2
09:16 61.9 °F 59.5 °F 29.8 in NE 0.9 mph 4 mph 92% 0.02 in 113 W/m2
09:21 61.7 °F 59.4 °F 29.8 in ENE 0.9 mph 1 mph 92% 0.02 in 111 W/m2
09:26 61.9 °F 59.9 °F 29.8 in ESE 2 mph 3 mph 93% 0.02 in 128 W/m2
09:31 61.7 °F 59.4 °F 29.8 in ENE 2.9 mph 7 mph 92% 0.02 in 156 W/m2
09:36 61.9 °F 59.5 °F 29.8 in ESE 2.9 mph 5 mph 92% 0.02 in 193 W/m2
09:41 61.9 °F 59.5 °F 29.8 in NE 2 mph 7 mph 92% 0.01 in 181 W/m2
09:46 61.9 °F 59.5 °F 29.8 in ESE 0.9 mph 4 mph 92% 0.01 in 209 W/m2
09:51 62.1 °F 59.7 °F 29.8 in ENE 2.9 mph 4 mph 92% 0.01 in 213 W/m2
09:56 62.1 °F 59.4 °F 29.8 in NE 2 mph 4 mph 91% 0.01 in 223 W/m2
10:01 62.1 °F 59.4 °F 29.8 in East 2 mph 6 mph 91% 0.01 in 186 W/m2
10:06 62.2 °F 59.5 °F 29.8 in ENE 4.9 mph 7 mph 91% 0 in 176 W/m2
10:11 62.1 °F 59.4 °F 29.8 in ENE 4 mph 9 mph 91% 0 in 118 W/m2
10:16 62.1 °F 59.4 °F 29.8 in SE 4 mph 7 mph 91% 0 in 116 W/m2
10:21 61.9 °F 59.2 °F 29.8 in East 2.9 mph 4 mph 91% 0 in 111 W/m2
10:26 61.5 °F 58.8 °F 29.8 in East 2.9 mph 5 mph 91% 0 in 123 W/m2
10:31 61.3 °F 58.6 °F 29.8 in NNE 4.9 mph 5 mph 91% 0 in 137 W/m2
10:36 61.3 °F 58.6 °F 29.8 in ENE 4.9 mph 6 mph 91% 0 in 135 W/m2
10:41 61.3 °F 58.5 °F 29.8 in NE 0.9 mph 8 mph 90% 0 in 178 W/m2
10:46 61.3 °F 58.5 °F 29.8 in ENE 0.9 mph 5 mph 90% 0 in 134 W/m2
10:51 61.5 °F 58.6 °F 29.8 in East 0.9 mph 8 mph 90% 0 in 169 W/m2
10:56 61.5 °F 58.6 °F 29.8 in East 2 mph 4 mph 90% 0 in 195 W/m2
11:01 61.5 °F 58.8 °F 29.8 in ESE 0.9 mph 4 mph 91% 0 in 199 W/m2
11:06 61.3 °F 58.6 °F 29.8 in ENE 2 mph 4 mph 91% 0.01 in 153 W/m2
11:11 61.2 °F 58.8 °F 29.8 in NE 4 mph 6 mph 92% 0.01 in 144 W/m2
11:16 60.8 °F 58.5 °F 29.8 in East 2.9 mph 8 mph 92% 0.01 in 176 W/m2
11:21 60.6 °F 58.3 °F 29.8 in East 4 mph 6 mph 92% 0.01 in 195 W/m2
11:26 60.6 °F 58.3 °F 29.8 in East 2.9 mph 12 mph 92% 0.01 in 281 W/m2
11:31 61 °F 59 °F 29.8 in East 4 mph 9 mph 93% 0.01 in 315 W/m2
11:36 61.2 °F 59.2 °F 29.8 in NE 2 mph 6 mph 93% 0.01 in 264 W/m2
11:41 61.2 °F 59.2 °F 29.8 in East 0.9 mph 9 mph 93% 0.01 in 230 W/m2
11:46 61.3 °F 59.5 °F 29.8 in NNE 2.9 mph 5 mph 94% 0.01 in 260 W/m2
11:51 61.5 °F 59.7 °F 29.8 in ESE 4 mph 6 mph 94% 0.01 in 267 W/m2
11:56 61.5 °F 59.7 °F 29.8 in East 0.9 mph 4 mph 94% 0.01 in 230 W/m2
12:01 61.9 °F 60.1 °F 29.8 in North 0.9 mph 3 mph 94% 0.01 in 255 W/m2
12:06 62.1 °F 60.3 °F 29.8 in East 2 mph 6 mph 94% 0 in 134 W/m2
12:11 61.9 °F 60.1 °F 29.8 in ENE 2 mph 4 mph 94% 0 in 162 W/m2
12:16 62.1 °F 60.3 °F 29.8 in ENE 2 mph 6 mph 94% 0 in 236 W/m2
12:21 62.2 °F 60.4 °F 29.8 in ENE 0.9 mph 3 mph 94% 0 in 295 W/m2
12:26 62.4 °F 60.6 °F 29.8 in NE 0.9 mph 1 mph 94% 0 in 142 W/m2
12:31 62.6 °F 60.8 °F 29.8 in WSW 2.9 mph 8 mph 94% 0 in 79 W/m2
12:36 62.6 °F 60.8 °F 29.8 in East 2 mph 4 mph 94% 0 in 127 W/m2
12:41 62.6 °F 60.8 °F 29.8 in ENE 4 mph 4 mph 94% 0 in 74 W/m2
12:46 62.4 °F 60.6 °F 29.8 in Calm   6 mph 94% 0 in 88 W/m2
12:51 62.6 °F 60.8 °F 29.8 in NE 0.9 mph 2 mph 94% 0 in 185 W/m2
12:56 63 °F 61.2 °F 29.8 in NW 2 mph 2 mph 94% 0 in 325 W/m2
13:01 63.1 °F 61.3 °F 29.8 in North 2 mph 7 mph 94% 0 in 214 W/m2
13:06 63.7 °F 61.9 °F 29.8 in North 2 mph 3 mph 94% 0 in 359 W/m2
13:11 64.2 °F 62.4 °F 29.8 in NNW 2 mph 5 mph 94% 0 in 214 W/m2
13:17 64.6 °F 62.4 °F 29.8 in NW 2.9 mph 7 mph 93% 0 in 204 W/m2
13:22 64.6 °F 62.4 °F 29.8 in North 0.9 mph 4 mph 93% 0 in 292 W/m2
13:27 64.8 °F 62.6 °F 29.8 in NE 2.9 mph 7 mph 93% 0 in 422 W/m2
13:32 65.3 °F 63.1 °F 29.8 in WSW 2.9 mph 4 mph 93% 0 in 538 W/m2
13:37 66 °F 63.9 °F 29.8 in NNE 4 mph 4 mph 93% 0 in 450 W/m2
13:42 66.6 °F 63.9 °F 29.8 in WNW 0.9 mph 4 mph 91% 0 in 172 W/m2
13:47 66.4 °F 63 °F 29.8 in Calm   4 mph 89% 0 in 278 W/m2
13:52 66.6 °F 63.5 °F 29.8 in North 2 mph 2 mph 90% 0.01 in 606 W/m2
13:57 66.9 °F 64.2 °F 29.8 in NNW 2.9 mph 4 mph 91% 0.01 in 339 W/m2
14:02 67.5 °F 64.4 °F 29.8 in WNW 2 mph 6 mph 90% 0.01 in 304 W/m2
14:07 67.6 °F 64.2 °F 29.8 in SW 0.9 mph 3 mph 89% 0.01 in 206 W/m2
14:12 67.6 °F 63.7 °F 29.8 in West 2 mph 3 mph 87% 0.01 in 193 W/m2
14:17 67.6 °F 63.7 °F 29.8 in NNW 0.9 mph 4 mph 87% 0.01 in 388 W/m2
14:22 67.8 °F 63.9 °F 29.8 in WSW 0.9 mph 4 mph 87% 0.01 in 258 W/m2
Juneau County Weather
Compliments of Weather Underground - 4 mb